Flight Track Log - Related Links

Times and Time Zones

All times are in EDT time to prevent confusion due to time zone crossing. See the CSZ9292 flight status page for this flight to view local times or setup timezone preferences in your user account.

Time Position Orientation Groundspeed Altitude Reporting Facility
EDT Latitude Longitude Course Direction KTS MPH feet Rate Location/Type
Tue 10:18:00 AM 28.1548 115.6497 197° South  Level Estimated
Tue 10:19:00 AM 28.0659 115.6186 197° South  Level Estimated
Tue 10:20:00 AM 27.9771 115.5876 197° South  Level Estimated
Tue 10:21:00 AM 27.8883 115.5566 197° South  Level Estimated
Tue 10:22:00 AM 27.7995 115.5257 197° South  Level Estimated
Tue 10:23:00 AM 27.7106 115.4949 197° South  Level Estimated
Tue 10:24:00 AM 27.6218 115.4641 197° South  Level Estimated
Tue 10:25:00 AM 27.5329 115.4333 197° South  Level Estimated
Tue 10:26:00 AM 27.4440 115.4026 197° South  Level Estimated
Tue 10:27:00 AM 27.3552 115.3720 197° South  Level Estimated
Tue 10:28:00 AM 27.2663 115.3413 197° South  Level Estimated
Tue 10:29:00 AM 27.1774 115.3108 197° South  Level Estimated
Tue 10:30:00 AM 27.0885 115.2803 197° South  Level Estimated
Tue 10:31:00 AM 26.9996 115.2498 197° South  Level Estimated
Tue 10:32:00 AM 26.9107 115.2194 197° South  Level Estimated
Tue 10:33:00 AM 26.8218 115.1890 197° South  Level Estimated
Tue 10:34:00 AM 26.7329 115.1587 197° South  Level Estimated
Tue 10:35:00 AM 26.6440 115.1285 197° South  Level Estimated
Tue 10:36:00 AM 26.5551 115.0982 197° South  Level Estimated
Tue 10:37:00 AM 26.4661 115.0681 197° South  Level Estimated
Tue 10:38:00 AM 26.3772 115.0379 197° South  Level Estimated
Tue 10:39:00 AM 26.2883 115.0079 197° South  Level Estimated
Tue 10:40:00 AM 26.1993 114.9778 197° South  Level Estimated
Tue 10:41:00 AM 26.1103 114.9478 197° South  Level Estimated
Tue 10:42:00 AM 26.0214 114.9179 197° South  Level Estimated
Tue 10:43:00 AM 25.9324 114.8880 197° South  Level Estimated
Tue 10:44:00 AM 25.8434 114.8581 197° South  Level Estimated
Tue 10:45:00 AM 25.7544 114.8283 197° South  Level Estimated
Tue 10:46:00 AM 25.6655 114.7986 197° South  Level Estimated
Tue 10:47:00 AM 25.5765 114.7688 197° South  Level Estimated
Tue 10:48:00 AM 25.4875 114.7392 197° South  Level Estimated
Tue 10:49:00 AM 25.3985 114.7095 197° South  Level Estimated
Tue 10:50:00 AM 25.3094 114.6799 197° South  Level Estimated
Tue 10:51:00 AM 25.2204 114.6504 197° South  Level Estimated
Tue 10:52:00 AM 25.1314 114.6209 197° South  Level Estimated
Tue 10:53:00 AM 25.0424 114.5914 197° South  Level Estimated
Tue 10:54:00 AM 24.9533 114.5620 197° South  Level Estimated
Tue 10:55:00 AM 24.8643 114.5326 197° South  Level Estimated
Tue 10:56:00 AM 24.7752 114.5033 197° South  Level Estimated
Tue 10:57:00 AM 24.6862 114.4740 197° South  Level Estimated
Tue 10:58:00 AM 24.5971 114.4448 197° South  Level Estimated
Tue 10:59:00 AM 24.5081 114.4156 197° South  Level Estimated
Tue 11:00:00 AM 24.4190 114.3864 197° South  Level Estimated
Tue 11:01:00 AM 24.3299 114.3573 197° South  Level Estimated
Tue 11:02:00 AM 24.2408 114.3282 197° South  Level Estimated
Tue 11:03:00 AM 24.1518 114.2991 197° South  Level Estimated
Tue 11:04:00 AM 24.0627 114.2701 197° South  Level Estimated
Tue 11:05:00 AM 23.9736 114.2412 197° South  Level Estimated
Tue 11:06:00 AM 23.8845 114.2123 197° South  Level Estimated
Tue 11:07:00 AM 23.7953 114.1834 197° South  Level Estimated
Tue 11:08:00 AM 23.7062 114.1545 197° South  Level Estimated
Tue 11:09:00 AM 23.6171 114.1257 196° South  Level Estimated
Tue 11:10:00 AM 23.5280 114.0970 196° South  Level Estimated
Tue 11:11:00 AM 23.4389 114.0683 196° South  Level Estimated
Tue 11:12:00 AM 23.3497 114.0396 196° South  Level Estimated
Tue 11:13:00 AM 23.2606 114.0109 196° South  Level Estimated
Tue 11:14:00 AM 23.1714 113.9823 196° South  Level Estimated
Tue 11:15:00 AM 23.0823 113.9537 196° South  Level Estimated
Tue 11:16:00 AM 22.9931 113.9252 196° South  Level Estimated
Tue 11:17:00 AM 22.9040 113.8967 196° South  Level Estimated
Tue 11:18:00 AM 22.8148 113.8683 196° South  Level Estimated
Tue 11:19:00 AM 22.7256 113.8398 196° South  Level Estimated
Tue 11:20:00 AM 22.6395 113.8124 196° South  Level Estimated
Tue 11:21:00 AM 22.6395 113.8124 North  Level Estimated
Tue 11:22:00 AM 22.6395 113.8124 North  Level Estimated
Tue 11:23:00 AM 22.6395 113.8124 North  Level Estimated
Tue 11:24:00 AM 22.6395 113.8124 North  Level Estimated
Tue 11:25:00 AM 22.6395 113.8124 North  Level Estimated
Tue 11:26:00 AM 22.6395 113.8124 North  Level Estimated

Login

Don't have an account? Register now (free) for customized features, flight alerts, and more!